sensor_id;sensor_type;location;lat;lon;timestamp;pressure;altitude;pressure_sealevel;temperature;humidity
52949;BME280;38812;50.942;3.644;2023-03-26T00:00:42;100704.44;;;8.71;100.00
52949;BME280;38812;50.942;3.644;2023-03-26T00:03:12;100697.44;;;8.73;100.00
52949;BME280;38812;50.942;3.644;2023-03-26T00:05:38;100687.84;;;8.72;100.00
52949;BME280;38812;50.942;3.644;2023-03-26T00:08:05;100693.03;;;8.75;100.00
52949;BME280;38812;50.942;3.644;2023-03-26T00:10:36;100691.31;;;8.74;100.00
52949;BME280;38812;50.942;3.644;2023-03-26T00:13:03;100687.97;;;8.64;100.00
52949;BME280;38812;50.942;3.644;2023-03-26T00:15:29;100691.50;;;8.63;100.00
52949;BME280;38812;50.942;3.644;2023-03-26T00:17:54;100683.63;;;8.63;100.00
52949;BME280;38812;50.942;3.644;2023-03-26T00:20:20;100677.63;;;8.56;100.00
52949;BME280;38812;50.942;3.644;2023-03-26T00:22:46;100681.03;;;8.62;100.00
52949;BME280;38812;50.942;3.644;2023-03-26T00:25:12;100682.78;;;8.63;100.00
52949;BME280;38812;50.942;3.644;2023-03-26T00:27:38;100683.69;;;8.58;100.00
52949;BME280;38812;50.942;3.644;2023-03-26T00:30:04;100662.53;;;8.72;100.00
52949;BME280;38812;50.942;3.644;2023-03-26T00:32:30;100669.63;;;8.66;100.00
52949;BME280;38812;50.942;3.644;2023-03-26T00:34:56;100660.13;;;8.58;100.00
52949;BME280;38812;50.942;3.644;2023-03-26T00:37:22;100652.38;;;8.51;100.00
52949;BME280;38812;50.942;3.644;2023-03-26T00:39:54;100643.59;;;8.55;100.00
52949;BME280;38812;50.942;3.644;2023-03-26T00:42:27;100636.69;;;8.49;100.00
52949;BME280;38812;50.942;3.644;2023-03-26T00:44:52;100634.13;;;8.46;100.00
52949;BME280;38812;50.942;3.644;2023-03-26T00:47:26;100622.72;;;8.50;100.00
52949;BME280;38812;50.942;3.644;2023-03-26T00:49:53;100612.38;;;8.44;100.00
52949;BME280;38812;50.942;3.644;2023-03-26T00:52:18;100617.69;;;8.38;100.00
52949;BME280;38812;50.942;3.644;2023-03-26T00:54:50;100613.31;;;8.40;100.00
52949;BME280;38812;50.942;3.644;2023-03-26T00:57:16;100606.44;;;8.30;100.00
52949;BME280;38812;50.942;3.644;2023-03-26T00:59:42;100602.16;;;8.24;100.00
52949;BME280;38812;50.942;3.644;2023-03-26T01:02:12;100602.94;;;8.31;100.00
52949;BME280;38812;50.942;3.644;2023-03-26T01:04:44;100590.88;;;8.22;100.00
52949;BME280;38812;50.942;3.644;2023-03-26T01:07:14;100591.75;;;8.21;100.00
52949;BME280;38812;50.942;3.644;2023-03-26T01:09:47;100585.66;;;8.21;100.00
52949;BME280;38812;50.942;3.644;2023-03-26T01:12:19;100581.97;;;8.34;100.00
52949;BME280;38812;50.942;3.644;2023-03-26T01:14:49;100575.97;;;8.26;100.00
52949;BME280;38812;50.942;3.644;2023-03-26T01:17:16;100581.97;;;8.34;100.00
52949;BME280;38812;50.942;3.644;2023-03-26T01:22:13;100573.19;;;8.38;100.00
52949;BME280;38812;50.942;3.644;2023-03-26T01:24:40;100572.38;;;8.35;100.00
52949;BME280;38812;50.942;3.644;2023-03-26T01:32:24;100546.84;;;8.47;100.00
52949;BME280;38812;50.942;3.644;2023-03-26T01:35:11;100551.34;;;8.41;100.00
52949;BME280;38812;50.942;3.644;2023-03-26T01:38:07;100541.88;;;8.32;100.00
52949;BME280;38812;50.942;3.644;2023-03-26T01:40:45;100541.88;;;8.31;100.00
52949;BME280;38812;50.942;3.644;2023-03-26T01:46:00;100532.19;;;8.39;100.00
52949;BME280;38812;50.942;3.644;2023-03-26T01:48:45;100530.38;;;8.42;100.00
52949;BME280;38812;50.942;3.644;2023-03-26T01:51:12;100513.94;;;8.34;100.00
52949;BME280;38812;50.942;3.644;2023-03-26T01:53:45;100525.16;;;8.42;100.00
52949;BME280;38812;50.942;3.644;2023-03-26T02:04:45;100506.09;;;8.31;100.00
52949;BME280;38812;50.942;3.644;2023-03-26T02:07:27;100492.22;;;8.26;100.00
52949;BME280;38812;50.942;3.644;2023-03-26T02:10:02;100486.09;;;8.27;100.00
52949;BME280;38812;50.942;3.644;2023-03-26T02:12:31;100459.25;;;8.16;100.00
52949;BME280;38812;50.942;3.644;2023-03-26T02:15:00;100466.97;;;8.23;100.00
52949;BME280;38812;50.942;3.644;2023-03-26T02:17:26;100472.44;;;8.10;100.00
52949;BME280;38812;50.942;3.644;2023-03-26T02:19:55;100443.72;;;8.05;100.00
52949;BME280;38812;50.942;3.644;2023-03-26T02:22:21;100460.91;;;8.21;100.00
52949;BME280;38812;50.942;3.644;2023-03-26T02:24:47;100451.38;;;8.19;100.00
52949;BME280;38812;50.942;3.644;2023-03-26T02:27:13;100442.69;;;8.17;100.00
52949;BME280;38812;50.942;3.644;2023-03-26T02:29:42;100440.66;;;8.31;100.00
52949;BME280;38812;50.942;3.644;2023-03-26T02:32:09;100437.19;;;8.31;100.00
52949;BME280;38812;50.942;3.644;2023-03-26T02:34:40;100424.97;;;8.30;100.00
52949;BME280;38812;50.942;3.644;2023-03-26T02:37:07;100420.59;;;8.33;100.00
52949;BME280;38812;50.942;3.644;2023-03-26T02:39:32;100410.75;;;8.46;100.00
52949;BME280;38812;50.942;3.644;2023-03-26T02:41:58;100394.31;;;8.39;100.00
52949;BME280;38812;50.942;3.644;2023-03-26T02:44:23;100398.53;;;8.46;100.00
52949;BME280;38812;50.942;3.644;2023-03-26T02:46:49;100391.66;;;8.42;100.00
52949;BME280;38812;50.942;3.644;2023-03-26T02:49:14;100386.47;;;8.39;100.00
52949;BME280;38812;50.942;3.644;2023-03-26T02:51:40;100370.59;;;8.47;100.00
52949;BME280;38812;50.942;3.644;2023-03-26T02:54:05;100360.13;;;8.45;100.00
52949;BME280;38812;50.942;3.644;2023-03-26T02:56:31;100356.63;;;8.46;100.00
52949;BME280;38812;50.942;3.644;2023-03-26T02:58:56;100354.78;;;8.51;100.00
52949;BME280;38812;50.942;3.644;2023-03-26T03:01:22;100354.72;;;8.54;100.00
52949;BME280;38812;50.942;3.644;2023-03-26T03:03:47;100344.25;;;8.54;100.00
52949;BME280;38812;50.942;3.644;2023-03-26T03:06:14;100335.91;;;8.37;100.00
52949;BME280;38812;50.942;3.644;2023-03-26T03:08:41;100328.94;;;8.36;100.00
52949;BME280;38812;50.942;3.644;2023-03-26T03:13:32;100328.72;;;8.45;100.00
52949;BME280;38812;50.942;3.644;2023-03-26T03:15:57;100317.56;;;8.37;100.00
52949;BME280;38812;50.942;3.644;2023-03-26T03:18:23;100319.31;;;8.38;100.00
52949;BME280;38812;50.942;3.644;2023-03-26T03:20:48;100312.28;;;8.40;100.00
52949;BME280;38812;50.942;3.644;2023-03-26T03:23:14;100295.06;;;8.27;100.00
52949;BME280;38812;50.942;3.644;2023-03-26T03:25:40;100286.28;;;8.30;100.00
52949;BME280;38812;50.942;3.644;2023-03-26T03:28:06;100275.00;;;8.26;100.00
52949;BME280;38812;50.942;3.644;2023-03-26T03:30:32;100275.78;;;8.31;100.00
52949;BME280;38812;50.942;3.644;2023-03-26T03:32:57;100258.34;;;8.30;100.00
52949;BME280;38812;50.942;3.644;2023-03-26T03:35:25;100254.97;;;8.25;100.00
52949;BME280;38812;50.942;3.644;2023-03-26T03:37:52;100248.84;;;8.26;100.00
52949;BME280;38812;50.942;3.644;2023-03-26T03:40:17;100248.91;;;8.23;100.00
52949;BME280;38812;50.942;3.644;2023-03-26T03:42:44;100241.13;;;8.20;100.00
52949;BME280;38812;50.942;3.644;2023-03-26T03:45:09;100248.91;;;8.23;100.00
52949;BME280;38812;50.942;3.644;2023-03-26T03:47:35;100234.84;;;8.29;100.00
52949;BME280;38812;50.942;3.644;2023-03-26T03:50:00;100228.91;;;8.20;100.00
52949;BME280;38812;50.942;3.644;2023-03-26T03:52:26;100228.78;;;8.25;100.00
52949;BME280;38812;50.942;3.644;2023-03-26T03:54:53;100233.97;;;8.28;100.00
52949;BME280;38812;50.942;3.644;2023-03-26T03:57:18;100217.56;;;8.21;100.00
52949;BME280;38812;50.942;3.644;2023-03-26T03:59:46;100226.97;;;8.29;100.00
52949;BME280;38812;50.942;3.644;2023-03-26T04:02:12;100206.19;;;8.22;100.00
52949;BME280;38812;50.942;3.644;2023-03-26T04:04:37;100208.59;;;8.33;100.00
52949;BME280;38812;50.942;3.644;2023-03-26T04:07:04;100211.25;;;8.30;100.00
52949;BME280;38812;50.942;3.644;2023-03-26T04:09:30;100209.53;;;8.29;100.00
52949;BME280;38812;50.942;3.644;2023-03-26T04:11:55;100193.84;;;8.27;100.00
52949;BME280;38812;50.942;3.644;2023-03-26T04:14:20;100188.69;;;8.24;100.00
52949;BME280;38812;50.942;3.644;2023-03-26T04:16:46;100178.25;;;8.23;100.00
52949;BME280;38812;50.942;3.644;2023-03-26T04:19:13;100183.22;;;8.37;100.00
52949;BME280;38812;50.942;3.644;2023-03-26T04:21:39;100174.69;;;8.27;100.00
52949;BME280;38812;50.942;3.644;2023-03-26T04:24:07;100155.47;;;8.28;100.00
52949;BME280;38812;50.942;3.644;2023-03-26T04:26:33;100157.09;;;8.35;100.00
52949;BME280;38812;50.942;3.644;2023-03-26T04:29:03;100155.16;;;8.43;100.00
52949;BME280;38812;50.942;3.644;2023-03-26T04:31:29;100148.97;;;8.46;100.00
52949;BME280;38812;50.942;3.644;2023-03-26T04:34:08;100149.94;;;8.43;100.00
52949;BME280;38812;50.942;3.644;2023-03-26T04:36:38;100136.63;;;8.51;100.00
52949;BME280;38812;50.942;3.644;2023-03-26T04:39:09;100120.41;;;8.37;100.00
52949;BME280;38812;50.942;3.644;2023-03-26T04:41:36;100127.44;;;8.35;100.00
52949;BME280;38812;50.942;3.644;2023-03-26T04:44:01;100132.00;;;8.23;100.00
52949;BME280;38812;50.942;3.644;2023-03-26T04:46:27;100126.75;;;8.25;100.00
52949;BME280;38812;50.942;3.644;2023-03-26T04:48:58;100121.75;;;8.16;100.00
52949;BME280;38812;50.942;3.644;2023-03-26T04:51:25;100127.09;;;8.10;100.00
52949;BME280;38812;50.942;3.644;2023-03-26T04:53:56;100117.56;;;8.07;100.00
52949;BME280;38812;50.942;3.644;2023-03-26T04:59:15;100108.38;;;8.26;100.00
52949;BME280;38812;50.942;3.644;2023-03-26T05:01:42;100106.34;;;8.42;100.00
52949;BME280;38812;50.942;3.644;2023-03-26T05:04:11;100106.06;;;8.53;100.00
52949;BME280;38812;50.942;3.644;2023-03-26T05:06:38;100097.13;;;8.23;100.00
52949;BME280;38812;50.942;3.644;2023-03-26T05:09:04;100089.25;;;8.24;100.00
52949;BME280;38812;50.942;3.644;2023-03-26T05:11:29;100082.09;;;8.34;100.00
52949;BME280;38812;50.942;3.644;2023-03-26T05:13:55;100098.72;;;8.30;100.00
52949;BME280;38812;50.942;3.644;2023-03-26T05:16:21;100078.91;;;8.20;100.00
52949;BME280;38812;50.942;3.644;2023-03-26T05:18:48;100094.75;;;8.14;100.00
52949;BME280;38812;50.942;3.644;2023-03-26T05:21:13;100089.91;;;7.97;100.00
52949;BME280;38812;50.942;3.644;2023-03-26T05:23:39;100091.25;;;7.76;100.00
52949;BME280;38812;50.942;3.644;2023-03-26T05:26:04;100092.22;;;7.71;100.00
52949;BME280;38812;50.942;3.644;2023-03-26T05:28:31;100083.13;;;7.47;100.00
52949;BME280;38812;50.942;3.644;2023-03-26T05:30:57;100088.88;;;7.64;100.00
52949;BME280;38812;50.942;3.644;2023-03-26T05:33:22;100083.75;;;7.58;100.00
52949;BME280;38812;50.942;3.644;2023-03-26T05:35:58;100088.38;;;7.47;100.00
52949;BME280;38812;50.942;3.644;2023-03-26T05:38:26;100088.69;;;7.32;100.00
52949;BME280;38812;50.942;3.644;2023-03-26T05:40:57;100084.56;;;7.18;100.00
52949;BME280;38812;50.942;3.644;2023-03-26T05:43:23;100074.78;;;7.30;100.00
52949;BME280;38812;50.942;3.644;2023-03-26T05:45:48;100074.78;;;7.30;100.00
52949;BME280;38812;50.942;3.644;2023-03-26T05:48:14;100058.28;;;7.28;100.00
52949;BME280;38812;50.942;3.644;2023-03-26T05:50:39;100059.22;;;7.23;100.00
52949;BME280;38812;50.942;3.644;2023-03-26T05:53:05;100052.03;;;7.35;100.00
52949;BME280;38812;50.942;3.644;2023-03-26T05:55:30;100052.03;;;7.35;100.00
52949;BME280;38812;50.942;3.644;2023-03-26T05:57:57;100056.28;;;7.39;100.00
52949;BME280;38812;50.942;3.644;2023-03-26T06:00:23;100034.72;;;7.29;100.00
52949;BME280;38812;50.942;3.644;2023-03-26T06:02:49;100040.78;;;7.31;100.00
52949;BME280;38812;50.942;3.644;2023-03-26T06:05:15;100046.88;;;7.32;100.00
52949;BME280;38812;50.942;3.644;2023-03-26T06:07:40;100041.00;;;7.20;100.00
52949;BME280;38812;50.942;3.644;2023-03-26T06:10:06;100027.06;;;7.20;100.00
52949;BME280;38812;50.942;3.644;2023-03-26T06:12:32;100027.91;;;7.22;100.00
52949;BME280;38812;50.942;3.644;2023-03-26T06:14:57;100030.53;;;7.20;100.00
52949;BME280;38812;50.942;3.644;2023-03-26T06:17:22;100027.09;;;7.18;100.00
52949;BME280;38812;50.942;3.644;2023-03-26T06:19:48;100025.47;;;7.14;100.00
52949;BME280;38812;50.942;3.644;2023-03-26T06:22:13;100016.91;;;7.06;100.00
52949;BME280;38812;50.942;3.644;2023-03-26T06:24:39;100011.69;;;7.06;100.00
52949;BME280;38812;50.942;3.644;2023-03-26T06:27:05;100018.66;;;7.06;100.00
52949;BME280;38812;50.942;3.644;2023-03-26T06:29:30;99999.81;;;6.92;100.00
52949;BME280;38812;50.942;3.644;2023-03-26T06:31:56;99992.88;;;6.89;100.00
52949;BME280;38812;50.942;3.644;2023-03-26T06:34:21;99997.34;;;6.82;100.00
52949;BME280;38812;50.942;3.644;2023-03-26T06:36:46;99989.50;;;6.84;100.00
52949;BME280;38812;50.942;3.644;2023-03-26T06:39:13;99994.63;;;6.88;100.00
52949;BME280;38812;50.942;3.644;2023-03-26T06:41:39;99997.28;;;6.87;100.00
52949;BME280;38812;50.942;3.644;2023-03-26T06:44:05;99985.16;;;6.83;100.00
52949;BME280;38812;50.942;3.644;2023-03-26T06:46:30;99989.50;;;6.84;100.00
52949;BME280;38812;50.942;3.644;2023-03-26T06:48:56;99993.84;;;6.85;100.00
52949;BME280;38812;50.942;3.644;2023-03-26T06:51:21;99976.59;;;6.75;100.00
52949;BME280;38812;50.942;3.644;2023-03-26T06:53:47;99988.72;;;6.79;100.00
52949;BME280;38812;50.942;3.644;2023-03-26T06:56:12;99982.84;;;6.69;100.00
52949;BME280;38812;50.942;3.644;2023-03-26T06:58:37;99987.28;;;6.63;100.00
52949;BME280;38812;50.942;3.644;2023-03-26T07:01:03;99977.75;;;6.62;100.00
52949;BME280;38812;50.942;3.644;2023-03-26T07:03:28;99978.50;;;6.68;100.00
52949;BME280;38812;50.942;3.644;2023-03-26T07:05:54;99975.09;;;6.63;100.00
52949;BME280;38812;50.942;3.644;2023-03-26T07:08:19;99983.84;;;6.61;100.00
52949;BME280;38812;50.942;3.644;2023-03-26T07:10:45;99970.84;;;6.58;100.00
52949;BME280;38812;50.942;3.644;2023-03-26T07:13:11;99974.19;;;6.66;100.00
52949;BME280;38812;50.942;3.644;2023-03-26T07:15:36;99961.31;;;6.57;100.00
52949;BME280;38812;50.942;3.644;2023-03-26T07:18:01;99972.56;;;6.60;100.00
52949;BME280;38812;50.942;3.644;2023-03-26T07:20:27;99974.31;;;6.60;100.00
52949;BME280;38812;50.942;3.644;2023-03-26T07:22:53;99959.78;;;6.46;100.00
52949;BME280;38812;50.942;3.644;2023-03-26T07:25:19;99966.69;;;6.49;100.00
52949;BME280;38812;50.942;3.644;2023-03-26T07:30:41;99972.91;;;6.42;100.00
52949;BME280;38812;50.942;3.644;2023-03-26T07:33:30;99966.81;;;6.41;100.00
52949;BME280;38812;50.942;3.644;2023-03-26T07:39:21;99963.47;;;6.33;100.00
52949;BME280;38812;50.942;3.644;2023-03-26T07:41:54;99966.97;;;6.32;100.00
52949;BME280;38812;50.942;3.644;2023-03-26T07:47:28;99960.06;;;6.28;100.00
52949;BME280;38812;50.942;3.644;2023-03-26T07:49:54;99955.84;;;6.23;100.00
52949;BME280;38812;50.942;3.644;2023-03-26T07:52:22;99955.03;;;6.19;100.00
52949;BME280;38812;50.942;3.644;2023-03-26T07:54:47;99955.81;;;6.24;100.00
52949;BME280;38812;50.942;3.644;2023-03-26T08:00:02;99948.00;;;6.24;100.00
52949;BME280;38812;50.942;3.644;2023-03-26T08:03:24;99958.50;;;6.21;100.00
52949;BME280;38812;50.942;3.644;2023-03-26T08:08:34;99964.50;;;6.26;100.00
52949;BME280;38812;50.942;3.644;2023-03-26T08:11:11;99954.06;;;6.26;100.00
52949;BME280;38812;50.942;3.644;2023-03-26T08:13:59;99951.50;;;6.23;100.00
52949;BME280;38812;50.942;3.644;2023-03-26T08:16:36;99950.41;;;6.35;100.00
52949;BME280;38812;50.942;3.644;2023-03-26T08:22:10;99946.78;;;6.43;100.00
52949;BME280;38812;50.942;3.644;2023-03-26T08:27:42;99955.50;;;6.42;100.00
52949;BME280;38812;50.942;3.644;2023-03-26T08:30:20;99962.41;;;6.45;100.00
52949;BME280;38812;50.942;3.644;2023-03-26T08:32:55;99957.13;;;6.49;100.00
52949;BME280;38812;50.942;3.644;2023-03-26T08:35:22;99957.94;;;6.50;100.00
52949;BME280;38812;50.942;3.644;2023-03-26T08:37:48;99963.16;;;6.50;100.00
52949;BME280;38812;50.942;3.644;2023-03-26T08:40:23;99952.00;;;6.43;100.00
52949;BME280;38812;50.942;3.644;2023-03-26T08:47:09;99975.25;;;6.54;100.00
52949;BME280;38812;50.942;3.644;2023-03-26T08:54:33;99973.41;;;6.61;100.00
52949;BME280;38812;50.942;3.644;2023-03-26T08:57:25;99977.78;;;6.60;100.00
52949;BME280;38812;50.942;3.644;2023-03-26T09:00:16;99979.50;;;6.61;100.00
52949;BME280;38812;50.942;3.644;2023-03-26T09:25:03;100011.56;;;6.68;100.00
52949;BME280;38812;50.942;3.644;2023-03-26T09:27:38;100013.09;;;6.78;100.00
52949;BME280;38812;50.942;3.644;2023-03-26T09:30:24;100012.28;;;6.74;100.00
52949;BME280;38812;50.942;3.644;2023-03-26T09:46:32;100017.50;;;6.74;100.00
52949;BME280;38812;50.942;3.644;2023-03-26T10:14:03;100057.47;;;6.78;100.00
52949;BME280;38812;50.942;3.644;2023-03-26T10:16:54;100066.94;;;6.85;100.00
52949;BME280;38812;50.942;3.644;2023-03-26T10:19:35;100079.19;;;6.81;100.00
52949;BME280;38812;50.942;3.644;2023-03-26T10:33:16;100086.72;;;6.97;100.00
52949;BME280;38812;50.942;3.644;2023-03-26T10:41:27;100098.50;;;7.19;100.00
52949;BME280;38812;50.942;3.644;2023-03-26T10:51:57;100107.38;;;7.55;100.00
52949;BME280;38812;50.942;3.644;2023-03-26T10:56:55;100114.31;;;7.56;100.00
52949;BME280;38812;50.942;3.644;2023-03-26T10:59:21;100122.56;;;7.79;100.00
52949;BME280;38812;50.942;3.644;2023-03-26T11:07:53;100128.16;;;8.01;100.00
52949;BME280;38812;50.942;3.644;2023-03-26T11:10:28;100140.22;;;8.08;100.00
52949;BME280;38812;50.942;3.644;2023-03-26T11:13:09;100136.31;;;8.26;100.00
52949;BME280;38812;50.942;3.644;2023-03-26T11:15:45;100152.47;;;8.06;100.00
52949;BME280;38812;50.942;3.644;2023-03-26T11:21:17;100154.31;;;8.01;100.00
52949;BME280;38812;50.942;3.644;2023-03-26T11:26:53;100161.06;;;8.11;100.00
52949;BME280;38812;50.942;3.644;2023-03-26T11:32:29;100167.16;;;8.52;100.00
52949;BME280;38812;50.942;3.644;2023-03-26T11:35:14;100175.81;;;8.55;100.00
52949;BME280;38812;50.942;3.644;2023-03-26T11:37:45;100172.69;;;8.77;100.00
52949;BME280;38812;50.942;3.644;2023-03-26T11:40:19;100174.91;;;8.92;100.00
52949;BME280;38812;50.942;3.644;2023-03-26T11:42:52;100181.81;;;9.30;100.00
52949;BME280;38812;50.942;3.644;2023-03-26T11:45:23;100175.19;;;9.49;100.00
52949;BME280;38812;50.942;3.644;2023-03-26T11:50:55;100188.63;;;9.36;100.00
52949;BME280;38812;50.942;3.644;2023-03-26T11:53:27;100188.38;;;9.12;100.00
52949;BME280;38812;50.942;3.644;2023-03-26T11:56:01;100199.69;;;9.14;100.00
52949;BME280;38812;50.942;3.644;2023-03-26T11:58:32;100207.94;;;8.99;100.00
52949;BME280;38812;50.942;3.644;2023-03-26T12:01:03;100205.09;;;9.08;100.00
52949;BME280;38812;50.942;3.644;2023-03-26T12:03:28;100210.09;;;9.17;100.00
52949;BME280;38812;50.942;3.644;2023-03-26T12:05:57;100224.09;;;9.16;100.00
52949;BME280;38812;50.942;3.644;2023-03-26T12:08:33;100224.75;;;8.89;100.00
52949;BME280;38812;50.942;3.644;2023-03-26T12:11:02;100230.16;;;8.83;100.00
52949;BME280;38812;50.942;3.644;2023-03-26T12:13:43;100224.69;;;8.92;100.00
52949;BME280;38812;50.942;3.644;2023-03-26T12:16:15;100235.16;;;8.92;100.00
52949;BME280;38812;50.942;3.644;2023-03-26T12:18:42;100240.47;;;8.89;100.00
52949;BME280;38812;50.942;3.644;2023-03-26T12:21:17;100242.72;;;9.06;100.00
52949;BME280;38812;50.942;3.644;2023-03-26T12:23:57;100244.72;;;8.94;100.00
52949;BME280;38812;50.942;3.644;2023-03-26T12:26:40;100252.25;;;8.71;100.00
52949;BME280;38812;50.942;3.644;2023-03-26T12:29:09;100250.78;;;8.59;100.00
52949;BME280;38812;50.942;3.644;2023-03-26T12:34:16;100253.00;;;8.38;100.00
52949;BME280;38812;50.942;3.644;2023-03-26T12:36:55;100270.53;;;8.34;100.00
52949;BME280;38812;50.942;3.644;2023-03-26T12:39:27;100277.31;;;8.43;100.00
52949;BME280;38812;50.942;3.644;2023-03-26T12:41:58;100272.31;;;8.31;100.00
52949;BME280;38812;50.942;3.644;2023-03-26T12:47:21;100282.22;;;8.15;100.00
52949;BME280;38812;50.942;3.644;2023-03-26T12:49:49;100291.75;;;8.19;100.00
52949;BME280;38812;50.942;3.644;2023-03-26T12:55:17;100290.09;;;8.13;100.00
52949;BME280;38812;50.942;3.644;2023-03-26T12:58:21;100300.31;;;8.25;100.00
52949;BME280;38812;50.942;3.644;2023-03-26T13:11:49;100300.84;;;9.21;100.00
52949;BME280;38812;50.942;3.644;2023-03-26T13:14:33;100305.44;;;9.12;100.00
52949;BME280;38812;50.942;3.644;2023-03-26T13:17:33;100312.28;;;9.17;100.00
52949;BME280;38812;50.942;3.644;2023-03-26T13:20:14;100316.22;;;9.00;100.00
52949;BME280;38812;50.942;3.644;2023-03-26T13:27:54;100322.34;;;8.60;100.00
52949;BME280;38812;50.942;3.644;2023-03-26T13:30:40;100329.59;;;8.46;100.00
52949;BME280;38812;50.942;3.644;2023-03-26T13:36:04;100335.56;;;8.52;100.00
52949;BME280;38812;50.942;3.644;2023-03-26T13:47:16;100349.50;;;8.54;100.00
52949;BME280;38812;50.942;3.644;2023-03-26T13:49:48;100363.75;;;8.41;100.00
52949;BME280;38812;50.942;3.644;2023-03-26T13:52:23;100362.06;;;8.37;100.00
52949;BME280;38812;50.942;3.644;2023-03-26T13:54:55;100364.75;;;8.34;100.00
52949;BME280;38812;50.942;3.644;2023-03-26T13:57:42;100373.72;;;8.19;100.00
52949;BME280;38812;50.942;3.644;2023-03-26T14:00:18;100372.88;;;8.19;100.00
52949;BME280;38812;50.942;3.644;2023-03-26T14:02:52;100375.56;;;8.14;100.00
52949;BME280;38812;50.942;3.644;2023-03-26T14:05:29;100375.25;;;8.30;100.00
52949;BME280;38812;50.942;3.644;2023-03-26T14:08:03;100379.63;;;8.29;100.00
52949;BME280;38812;50.942;3.644;2023-03-26T14:10:36;100388.00;;;8.49;100.00
52949;BME280;38812;50.942;3.644;2023-03-26T14:15:58;100392.38;;;8.49;100.00
52949;BME280;38812;50.942;3.644;2023-03-26T14:18:34;100390.44;;;8.58;100.00
52949;BME280;38812;50.942;3.644;2023-03-26T14:32:56;100398.97;;;8.67;100.00
52949;BME280;38812;50.942;3.644;2023-03-26T14:35:19;100408.50;;;8.71;100.00
52949;BME280;38812;50.942;3.644;2023-03-26T14:54:12;100435.88;;;8.56;100.00
52949;BME280;38812;50.942;3.644;2023-03-26T14:57:20;100450.78;;;8.51;100.00
52949;BME280;38812;50.942;3.644;2023-03-26T15:05:38;100463.25;;;8.38;100.00
52949;BME280;38812;50.942;3.644;2023-03-26T15:14:27;100478.16;;;8.81;100.00
52949;BME280;38812;50.942;3.644;2023-03-26T15:33:54;100526.88;;;8.43;100.00
52949;BME280;38812;50.942;3.644;2023-03-26T16:12:31;100626.47;;;7.71;100.00
52949;BME280;38812;50.942;3.644;2023-03-26T16:21:03;100652.81;;;7.56;100.00
52949;BME280;38812;50.942;3.644;2023-03-26T16:43:16;100705.34;;;7.32;100.00
52949;BME280;38812;50.942;3.644;2023-03-26T16:48:57;100715.06;;;7.16;100.00
52949;BME280;38812;50.942;3.644;2023-03-26T16:54:15;100740.25;;;7.25;100.00
52949;BME280;38812;50.942;3.644;2023-03-26T16:56:49;100749.00;;;7.19;100.00
52949;BME280;38812;50.942;3.644;2023-03-26T17:02:48;100761.28;;;7.12;100.00
52949;BME280;38812;50.942;3.644;2023-03-26T17:05:35;100765.66;;;7.07;100.00
52949;BME280;38812;50.942;3.644;2023-03-26T17:10:55;100777.00;;;7.03;100.00
52949;BME280;38812;50.942;3.644;2023-03-26T17:13:31;100789.16;;;7.07;100.00
52949;BME280;38812;50.942;3.644;2023-03-26T17:19:24;100794.56;;;6.86;100.00
52949;BME280;38812;50.942;3.644;2023-03-26T17:21:59;100784.13;;;6.83;100.00
52949;BME280;38812;50.942;3.644;2023-03-26T17:24:39;100802.50;;;6.68;100.00
52949;BME280;38812;50.942;3.644;2023-03-26T17:35:44;100849.53;;;6.60;100.00
52949;BME280;38812;50.942;3.644;2023-03-26T17:40:49;100859.94;;;6.71;100.00
52949;BME280;38812;50.942;3.644;2023-03-26T17:43:46;100873.00;;;6.62;100.00
52949;BME280;38812;50.942;3.644;2023-03-26T17:46:28;100881.72;;;6.64;100.00
52949;BME280;38812;50.942;3.644;2023-03-26T17:49:06;100883.47;;;6.59;100.00
52949;BME280;38812;50.942;3.644;2023-03-26T17:52:19;100890.44;;;6.57;100.00
52949;BME280;38812;50.942;3.644;2023-03-26T17:54:46;100897.44;;;6.45;100.00
52949;BME280;38812;50.942;3.644;2023-03-26T17:57:19;100907.03;;;6.31;100.00
52949;BME280;38812;50.942;3.644;2023-03-26T17:59:47;100904.41;;;6.34;100.00
52949;BME280;38812;50.942;3.644;2023-03-26T18:02:17;100909.69;;;6.22;100.00
52949;BME280;38812;50.942;3.644;2023-03-26T18:04:46;100913.16;;;6.27;100.00
52949;BME280;38812;50.942;3.644;2023-03-26T18:07:47;100935.78;;;6.25;100.00
52949;BME280;38812;50.942;3.644;2023-03-26T18:15:38;100954.03;;;6.21;100.00
52949;BME280;38812;50.942;3.644;2023-03-26T18:20:34;100973.16;;;6.26;100.00
52949;BME280;38812;50.942;3.644;2023-03-26T18:23:19;100971.44;;;6.18;100.00
52949;BME280;38812;50.942;3.644;2023-03-26T18:25:56;100981.00;;;6.21;100.00
52949;BME280;38812;50.942;3.644;2023-03-26T18:28:30;100984.47;;;6.26;100.00
52949;BME280;38812;50.942;3.644;2023-03-26T18:31:24;100991.44;;;6.18;100.00
52949;BME280;38812;50.942;3.644;2023-03-26T18:33:56;100989.69;;;6.23;100.00
52949;BME280;38812;50.942;3.644;2023-03-26T18:36:24;100990.56;;;6.24;100.00
52949;BME280;38812;50.942;3.644;2023-03-26T18:38:55;100999.25;;;6.15;100.00
52949;BME280;38812;50.942;3.644;2023-03-26T18:41:35;101006.22;;;6.17;100.00
52949;BME280;38812;50.942;3.644;2023-03-26T18:44:04;101014.91;;;6.24;100.00
52949;BME280;38812;50.942;3.644;2023-03-26T18:46:32;101021.84;;;6.07;100.00
52949;BME280;38812;50.942;3.644;2023-03-26T18:49:00;101025.34;;;5.98;100.00
52949;BME280;38812;50.942;3.644;2023-03-26T18:51:27;101027.94;;;5.98;100.00
52949;BME280;38812;50.942;3.644;2023-03-26T18:53:58;101043.59;;;6.09;100.00
52949;BME280;38812;50.942;3.644;2023-03-26T18:56:34;101031.41;;;5.90;100.00
52949;BME280;38812;50.942;3.644;2023-03-26T18:59:01;101060.97;;;5.95;100.00
52949;BME280;38812;50.942;3.644;2023-03-26T19:01:29;101059.19;;;5.88;100.00
52949;BME280;38812;50.942;3.644;2023-03-26T19:04:00;101067.84;;;5.85;100.00